Time;durP1;ratioP1;P1;durP2;ratioP2;P2;SDS_P1;SDS_P2;PMS_P1;PMS_P2;Temp;Humidity;BMP_temperature;BMP_pressure;BME280_temperature;BME280_humidity;BME280_pressure;Samples;Min_cycle;Max_cycle;Signal;HPM_P1;HPM_P2
2024/01/12 00:01:39;;;;;;;21.85;9.43;;;;;;;-3.34;100.00;99151.44;4501579;31;20171;-74
2024/01/12 00:04:06;;;;;;;23.20;8.18;;;;;;;-3.37;100.00;99143.00;4501540;31;20096;-73
2024/01/12 00:06:34;;;;;;;25.20;8.32;;;;;;;-3.39;100.00;99150.72;4501313;31;20118;-73
2024/01/12 00:09:03;;;;;;;21.02;7.97;;;;;;;-3.41;100.00;99140.53;4501453;31;20096;-74
2024/01/12 00:11:31;;;;;;;25.33;10.45;;;;;;;-3.39;100.00;99148.16;4501390;31;20096;-74
2024/01/12 00:13:59;;;;;;;24.40;9.07;;;;;;;-3.40;100.00;99144.75;4501329;31;20076;-74
2024/01/12 00:16:26;;;;;;;23.73;8.70;;;;;;;-3.45;100.00;99146.59;4501370;31;20101;-74
2024/01/12 00:18:54;;;;;;;24.65;9.65;;;;;;;-3.45;100.00;99144.03;4492018;31;20156;-74
2024/01/12 00:21:22;;;;;;;24.52;9.63;;;;;;;-3.51;100.00;99141.63;4485547;31;20092;-74
2024/01/12 00:23:49;;;;;;;25.15;9.65;;;;;;;-3.47;100.00;99147.50;4485921;32;20104;-73
2024/01/12 00:26:17;;;;;;;21.10;8.65;;;;;;;-3.54;100.00;99136.59;4485568;31;20084;-74
2024/01/12 00:28:45;;;;;;;16.60;4.62;;;;;;;-3.58;100.00;99132.41;4485447;31;20447;-74
2024/01/12 00:31:12;;;;;;;23.90;9.77;;;;;;;-3.52;100.00;99139.94;4499457;31;20168;-73
2024/01/12 00:33:40;;;;;;;26.33;9.75;;;;;;;-3.54;100.00;99136.59;4501182;31;20524;-73
2024/01/12 00:36:08;;;;;;;22.23;9.95;;;;;;;-3.63;100.00;99142.78;4501065;31;20088;-73
2024/01/12 00:38:35;;;;;;;23.62;8.68;;;;;;;-3.64;100.00;99135.97;4501142;31;20096;-73
2024/01/12 00:41:03;;;;;;;15.45;7.43;;;;;;;-3.69;100.00;99140.37;4501152;31;20125;-73
2024/01/12 00:43:31;;;;;;;24.87;9.82;;;;;;;-3.68;100.00;99131.81;4501258;31;20083;-73
2024/01/12 00:45:58;;;;;;;17.37;8.32;;;;;;;-3.71;100.00;99126.75;4500957;31;20438;-73
2024/01/12 00:48:26;;;;;;;23.85;10.13;;;;;;;-3.68;100.00;99128.41;4501213;31;20156;-74
2024/01/12 00:50:54;;;;;;;21.45;8.15;;;;;;;-3.69;100.00;99132.69;4501183;31;20104;-73
2024/01/12 00:53:22;;;;;;;23.62;10.15;;;;;;;-3.77;100.00;99140.56;4501407;31;20095;-73
2024/01/12 00:55:50;;;;;;;22.42;9.57;;;;;;;-3.79;100.00;99151.72;4501014;31;20122;-73
2024/01/12 00:58:18;;;;;;;21.30;8.98;;;;;;;-3.80;100.00;99156.00;4501036;31;20104;-73
2024/01/12 01:00:47;;;;;;;28.67;9.70;;;;;;;-3.71;100.00;99159.22;4500977;31;20092;-73
2024/01/12 01:03:16;;;;;;;29.73;10.63;;;;;;;-3.75;100.00;99158.47;4500537;31;20114;-73
2024/01/12 01:05:43;;;;;;;26.52;9.68;;;;;;;-3.82;100.00;99162.87;4501011;31;20110;-73
2024/01/12 01:08:11;;;;;;;22.40;8.88;;;;;;;-3.80;100.00;99175.63;4501139;31;20152;-73
2024/01/12 01:10:41;;;;;;;21.50;10.10;;;;;;;-3.79;100.00;99169.63;4500782;31;20119;-73
2024/01/12 01:13:09;;;;;;;25.37;9.90;;;;;;;-3.80;100.00;99170.50;4501006;31;20154;-73
2024/01/12 01:15:37;;;;;;;24.33;10.13;;;;;;;-3.80;100.00;99179.03;4499754;31;20446;-74
2024/01/12 01:18:04;;;;;;;23.95;11.07;;;;;;;-3.82;100.00;99177.41;4496825;31;20165;-73
2024/01/12 01:20:34;;;;;;;22.50;9.07;;;;;;;-3.78;100.00;99177.28;4485620;32;20114;-74
2024/01/12 01:23:02;;;;;;;21.65;10.68;;;;;;;-3.84;100.00;99171.47;4485121;31;20701;-73
2024/01/12 01:25:29;;;;;;;19.45;9.18;;;;;;;-3.84;100.00;99176.59;4485164;31;20498;-73
2024/01/12 01:27:58;;;;;;;24.67;9.85;;;;;;;-3.85;100.00;99180.84;4484915;31;20494;-73
2024/01/12 01:30:26;;;;;;;29.55;9.40;;;;;;;-3.89;100.00;99178.41;4494169;31;20100;-73
2024/01/12 01:32:55;;;;;;;20.37;9.48;;;;;;;-3.90;100.00;99175.03;4500749;31;20156;-73
2024/01/12 01:35:22;;;;;;;23.35;8.90;;;;;;;-3.94;100.00;99178.53;4500768;31;20084;-73
2024/01/12 01:37:50;;;;;;;19.17;9.88;;;;;;;-3.94;100.00;99170.84;4500947;31;20119;-73
2024/01/12 01:40:18;;;;;;;17.70;6.32;;;;;;;-3.97;100.00;99178.59;4500950;31;20100;-73
2024/01/12 01:42:47;;;;;;;22.42;9.05;;;;;;;-3.91;100.00;99175.88;4500594;31;20101;-73
2024/01/12 01:45:15;;;;;;;19.52;8.18;;;;;;;-3.89;100.00;99174.16;4500783;31;20091;-73
2024/01/12 01:47:45;;;;;;;25.85;9.80;;;;;;;-3.90;100.00;99175.03;4500785;31;20118;-73
2024/01/12 01:50:13;;;;;;;23.12;9.48;;;;;;;-3.92;100.00;99187.03;4500773;31;20598;-73
2024/01/12 01:52:44;;;;;;;27.67;10.73;;;;;;;-3.90;100.00;99180.13;4499297;31;20372;-73
2024/01/12 01:55:14;;;;;;;22.55;8.75;;;;;;;-3.98;100.00;99188.00;4499369;31;20114;-74
2024/01/12 01:57:42;;;;;;;22.10;8.63;;;;;;;-3.97;100.00;99181.97;4500717;31;20122;-73
2024/01/12 02:00:11;;;;;;;32.00;10.68;;;;;;;-3.97;100.00;99184.53;4500694;31;20101;-73
2024/01/12 02:02:38;;;;;;;21.08;8.60;;;;;;;-3.94;100.00;99191.31;4500554;31;20192;-73
2024/01/12 02:05:08;;;;;;;25.95;9.73;;;;;;;-3.93;100.00;99181.03;4500490;31;20084;-73
2024/01/12 02:07:37;;;;;;;26.95;8.88;;;;;;;-3.99;100.00;99177.81;4500497;31;20450;-73
2024/01/12 02:10:06;;;;;;;27.00;10.65;;;;;;;-3.97;100.00;99173.47;4500497;31;20172;-73
2024/01/12 02:12:35;;;;;;;31.00;12.20;;;;;;;-4.01;100.00;99172.72;4500253;31;20461;-73
2024/01/12 02:15:07;;;;;;;24.75;9.35;;;;;;;-4.08;100.00;99171.19;4499225;31;20187;-73
2024/01/12 02:17:35;;;;;;;20.45;9.38;;;;;;;-4.14;100.00;99164.47;4499234;31;20151;-73
2024/01/12 02:20:04;;;;;;;24.70;9.70;;;;;;;-4.06;100.00;99166.84;4484684;31;20560;-73
2024/01/12 02:22:31;;;;;;;21.05;8.38;;;;;;;-4.10;100.00;99176.31;4484573;31;20092;-73
2024/01/12 02:24:59;;;;;;;20.37;7.90;;;;;;;-4.13;100.00;99175.56;4484581;32;20160;-73
2024/01/12 02:27:29;;;;;;;22.37;9.20;;;;;;;-4.10;100.00;99176.31;4484477;31;20092;-73
2024/01/12 02:29:57;;;;;;;23.62;9.00;;;;;;;-4.07;100.00;99167.75;4483121;32;20599;-73
2024/01/12 02:32:25;;;;;;;25.35;11.05;;;;;;;-4.07;100.00;99183.09;4484604;31;20117;-73
2024/01/12 02:34:53;;;;;;;18.17;7.78;;;;;;;-4.08;100.00;99172.91;4484329;31;20118;-73
2024/01/12 02:37:20;;;;;;;21.50;9.43;;;;;;;-4.08;100.00;99178.03;4484440;31;20442;-73
2024/01/12 02:39:48;;;;;;;24.52;10.00;;;;;;;-4.10;100.00;99186.56;4484547;31;20509;-73
2024/01/12 02:42:16;;;;;;;21.62;9.80;;;;;;;-4.08;100.00;99180.56;4484150;31;20092;-73
2024/01/12 02:44:45;;;;;;;18.87;10.05;;;;;;;-4.04;100.00;99184.72;4484424;31;20515;-73
2024/01/12 02:47:13;;;;;;;23.95;9.52;;;;;;;-4.03;100.00;99187.25;4484670;31;20092;-73
2024/01/12 02:49:43;;;;;;;26.77;8.70;;;;;;;-4.03;100.00;99189.81;4484571;31;20122;-73
2024/01/12 02:52:10;;;;;;;20.17;9.00;;;;;;;-4.07;100.00;99193.34;4484556;31;20092;-73
2024/01/12 02:54:39;;;;;;;30.27;10.45;;;;;;;-4.09;100.00;99197.62;4484016;31;20097;-73
2024/01/12 02:57:06;;;;;;;21.12;9.77;;;;;;;-4.14;100.00;99209.69;4484414;31;20414;-73
2024/01/12 02:59:35;;;;;;;21.10;8.25;;;;;;;-4.11;100.00;99197.66;4484079;31;20119;-73
2024/01/12 03:02:03;;;;;;;27.58;9.85;;;;;;;-4.14;100.00;99202.00;4484260;31;20111;-73
2024/01/12 03:04:31;;;;;;;25.92;9.85;;;;;;;-4.13;100.00;99196.88;4484081;31;20145;-73
2024/01/12 03:06:58;;;;;;;21.65;9.35;;;;;;;-4.17;100.00;99202.91;4484257;31;20156;-73
2024/01/12 03:09:26;;;;;;;24.25;9.70;;;;;;;-4.22;100.00;99202.19;4483995;31;20084;-73
2024/01/12 03:11:53;;;;;;;15.30;7.28;;;;;;;-4.14;100.00;99202.84;4484129;31;20088;-73
2024/01/12 03:14:23;;;;;;;20.42;8.40;;;;;;;-4.17;100.00;99202.91;4483852;31;20114;-73
2024/01/12 03:16:51;;;;;;;23.20;8.23;;;;;;;-4.17;100.00;99202.91;4484157;32;20524;-73
2024/01/12 03:19:18;;;;;;;19.62;8.40;;;;;;;-4.16;100.00;99216.56;4496150;31;20597;-73
2024/01/12 03:21:46;;;;;;;20.60;7.25;;;;;;;-4.18;100.00;99218.31;4499780;31;20174;-73
2024/01/12 03:24:14;;;;;;;22.80;7.93;;;;;;;-4.20;100.00;99210.66;4499559;31;20119;-73
2024/01/12 03:26:42;;;;;;;19.50;9.57;;;;;;;-4.20;100.00;99222.63;4501189;31;20168;-73
2024/01/12 03:29:10;;;;;;;21.70;7.07;;;;;;;-4.24;100.00;99210.75;4501063;31;20084;-73
2024/01/12 03:31:38;;;;;;;16.45;7.07;;;;;;;-4.25;100.00;99209.06;4485734;31;20084;-73
2024/01/12 03:34:07;;;;;;;19.73;8.18;;;;;;;-4.24;100.00;99206.47;4485834;31;20130;-73
2024/01/12 03:36:35;;;;;;;14.23;6.87;;;;;;;-4.24;100.00;99211.59;4486007;31;20481;-73
2024/01/12 03:39:04;;;;;;;21.27;7.10;;;;;;;-4.25;100.00;99209.06;4485991;31;20144;-73
2024/01/12 03:41:32;;;;;;;13.40;5.85;;;;;;;-4.22;100.00;99217.53;4485971;31;20159;-73
2024/01/12 03:43:59;;;;;;;15.98;5.90;;;;;;;-4.20;100.00;99209.81;4485899;31;20115;-73
2024/01/12 03:46:27;;;;;;;15.77;6.87;;;;;;;-4.22;100.00;99220.09;4485922;31;20157;-73
2024/01/12 03:48:56;;;;;;;12.48;6.65;;;;;;;-4.22;100.00;99209.00;4485710;31;20161;-73
2024/01/12 03:51:23;;;;;;;14.55;7.15;;;;;;;-4.25;100.00;99215.06;4485799;31;20092;-73
2024/01/12 03:53:51;;;;;;;19.15;7.87;;;;;;;-4.29;100.00;99215.97;4485623;31;20123;-73
2024/01/12 03:56:19;;;;;;;21.67;7.22;;;;;;;-4.34;100.00;99228.03;4485958;31;20119;-73
2024/01/12 03:58:46;;;;;;;18.15;8.15;;;;;;;-4.41;100.00;99217.06;4485818;31;20084;-73
2024/01/12 04:01:14;;;;;;;14.20;7.15;;;;;;;-4.42;100.00;99212.84;4485912;31;20079;-73
2024/01/12 04:03:44;;;;;;;17.48;6.80;;;;;;;-4.42;100.00;99227.34;4485581;31;20131;-73
2024/01/12 04:06:11;;;;;;;18.25;7.53;;;;;;;-4.41;100.00;99224.75;4485601;31;20900;-73
2024/01/12 04:08:41;;;;;;;15.95;6.37;;;;;;;-4.42;100.00;99219.66;4485615;31;20096;-73
2024/01/12 04:11:08;;;;;;;16.25;6.47;;;;;;;-4.41;100.00;99237.53;4485499;31;20517;-73
2024/01/12 04:13:37;;;;;;;9.55;4.25;;;;;;;-4.36;100.00;99225.50;4485581;31;20164;-73
2024/01/12 04:16:05;;;;;;;12.65;6.03;;;;;;;-4.36;100.00;99222.97;4485570;32;20137;-73
2024/01/12 04:18:33;;;;;;;21.92;6.87;;;;;;;-4.33;100.00;99229.69;4492895;31;20176;-73
2024/01/12 04:21:01;;;;;;;15.82;5.45;;;;;;;-4.37;100.00;99216.16;4501351;31;20131;-73
2024/01/12 04:23:29;;;;;;;13.80;6.00;;;;;;;-4.39;100.00;99229.84;4501316;31;20109;-73
2024/01/12 04:25:57;;;;;;;17.25;5.18;;;;;;;-4.39;100.00;99224.72;4501173;31;20100;-73
2024/01/12 04:28:24;;;;;;;18.10;7.47;;;;;;;-4.37;100.00;99220.44;4501264;31;20603;-73
2024/01/12 04:30:52;;;;;;;14.85;7.10;;;;;;;-4.44;100.00;99237.59;4489326;31;20100;-73
2024/01/12 04:33:20;;;;;;;14.35;5.25;;;;;;;-4.48;100.00;99218.94;4485490;31;20118;-73
2024/01/12 04:35:47;;;;;;;9.48;4.32;;;;;;;-4.51;100.00;99236.91;4485645;31;20093;-73
2024/01/12 04:38:15;;;;;;;14.82;5.65;;;;;;;-4.47;100.00;99235.09;4484844;31;20080;-73
2024/01/12 04:40:43;;;;;;;10.45;4.40;;;;;;;-4.48;100.00;99239.37;4485440;31;20107;-73
2024/01/12 04:43:10;;;;;;;12.23;5.43;;;;;;;-4.43;100.00;99243.56;4485562;31;20096;-73
2024/01/12 04:45:38;;;;;;;15.15;5.90;;;;;;;-4.45;100.00;99238.50;4485132;31;20100;-73
2024/01/12 04:48:08;;;;;;;11.70;4.65;;;;;;;-4.39;100.00;99245.19;4485481;31;20156;-73
2024/01/12 04:50:36;;;;;;;9.35;4.70;;;;;;;-4.41;100.00;99240.09;4485199;31;20088;-73
2024/01/12 04:53:03;;;;;;;13.52;5.03;;;;;;;-4.42;100.00;99247.78;4485308;31;20088;-73
2024/01/12 04:55:32;;;;;;;11.93;4.95;;;;;;;-4.36;100.00;99242.56;4485114;31;20447;-73
2024/01/12 04:57:59;;;;;;;8.88;4.32;;;;;;;-4.39;100.00;99246.03;4485273;31;20430;-73
2024/01/12 05:00:26;;;;;;;16.67;5.90;;;;;;;-4.42;100.00;99252.91;4485398;31;20513;-73
2024/01/12 05:02:54;;;;;;;9.77;4.43;;;;;;;-4.53;100.00;99256.53;4488774;31;20145;-73
2024/01/12 05:05:22;;;;;;;11.98;4.53;;;;;;;-4.56;100.00;99258.31;4501029;31;20152;-73
2024/01/12 05:07:49;;;;;;;6.75;3.50;;;;;;;-4.57;100.00;99271.97;4500986;31;20179;-73
2024/01/12 05:10:17;;;;;;;11.57;4.93;;;;;;;-4.53;100.00;99266.75;4494720;31;20486;-73
2024/01/12 05:12:45;;;;;;;12.40;5.12;;;;;;;-4.52;100.00;99275.28;4494479;31;20155;-73
2024/01/12 05:15:12;;;;;;;14.32;5.68;;;;;;;-4.55;100.00;99285.56;4500652;31;20138;-73
2024/01/12 05:17:40;;;;;;;10.27;4.78;;;;;;;-4.59;100.00;99283.94;4490940;31;20084;-73
2024/01/12 05:20:08;;;;;;;9.27;4.07;;;;;;;-4.58;100.00;99283.06;4490512;31;20393;-73
2024/01/12 05:22:36;;;;;;;12.60;4.12;;;;;;;-4.59;100.00;99289.88;4486615;31;20499;-73
2024/01/12 05:25:05;;;;;;;10.07;4.32;;;;;;;-4.58;100.00;99283.91;4499886;31;20161;-73
2024/01/12 05:27:32;;;;;;;12.07;4.55;;;;;;;-4.54;100.00;99297.47;4487654;31;20165;-75
2024/01/12 05:30:00;;;;;;;11.75;4.80;;;;;;;-4.54;100.00;99290.66;4490953;31;20122;-74
2024/01/12 05:32:32;;;;;;;17.77;5.97;;;;;;;-4.62;100.00;99307.00;4497206;31;20096;-74
2024/01/12 05:35:02;;;;;;;14.00;4.68;;;;;;;-4.71;100.00;99308.00;4491100;31;20438;-73
2024/01/12 05:37:30;;;;;;;12.02;5.10;;;;;;;-4.74;100.00;99311.50;4494496;31;20100;-74
2024/01/12 05:39:58;;;;;;;12.23;5.20;;;;;;;-4.81;100.00;99318.41;4484864;31;20158;-74
2024/01/12 05:42:26;;;;;;;18.50;5.47;;;;;;;-4.84;100.00;99323.56;4497307;31;20100;-73
2024/01/12 05:44:54;;;;;;;15.60;5.72;;;;;;;-4.94;100.00;99324.59;4487368;31;20128;-73
2024/01/12 05:47:22;;;;;;;13.75;3.95;;;;;;;-4.95;100.00;99330.59;4500440;31;20088;-73
2024/01/12 05:49:50;;;;;;;12.25;5.03;;;;;;;-4.97;100.00;99339.97;4499802;31;20121;-74
2024/01/12 05:52:18;;;;;;;13.48;5.35;;;;;;;-4.98;100.00;99345.97;4500205;31;20114;-74
2024/01/12 05:54:46;;;;;;;13.73;5.15;;;;;;;-5.07;100.00;99339.31;4498191;31;20176;-73
2024/01/12 05:57:14;;;;;;;11.70;5.80;;;;;;;-5.08;100.00;99347.00;4489459;31;20586;-74
2024/01/12 05:59:42;;;;;;;14.52;4.95;;;;;;;-5.16;100.00;99342.00;4484991;31;20668;-73
2024/01/12 06:02:13;;;;;;;13.52;5.40;;;;;;;-5.18;100.00;99354.81;4486463;31;20092;-73
2024/01/12 06:04:41;;;;;;;13.75;5.05;;;;;;;-5.12;100.00;99345.34;4484802;31;20096;-73
2024/01/12 06:07:09;;;;;;;9.45;4.00;;;;;;;-5.17;100.00;99338.59;4486590;31;20096;-74
2024/01/12 06:09:38;;;;;;;14.30;5.95;;;;;;;-5.18;100.00;99326.72;4486376;31;20115;-73
2024/01/12 06:12:06;;;;;;;11.55;4.87;;;;;;;-5.18;100.00;99329.25;4491478;31;20153;-73
2024/01/12 06:14:36;;;;;;;14.90;5.20;;;;;;;-5.16;100.00;99334.34;4495693;31;20442;-73
2024/01/12 06:17:04;;;;;;;11.30;4.78;;;;;;;-5.19;100.00;99342.91;4490454;31;20100;-73
2024/01/12 06:19:32;;;;;;;14.05;5.70;;;;;;;-5.20;100.00;99341.19;4485809;31;20435;-73
2024/01/12 06:22:00;;;;;;;9.95;5.28;;;;;;;-5.17;100.00;99350.53;4484779;31;20092;-73
2024/01/12 06:24:27;;;;;;;12.50;4.78;;;;;;;-5.13;100.00;99348.75;4493461;31;20104;-73
2024/01/12 06:26:57;;;;;;;6.60;3.42;;;;;;;-5.13;100.00;99348.75;4493911;31;20104;-72
2024/01/12 06:29:29;;;;;;;11.48;4.45;;;;;;;-5.13;100.00;99346.19;4487800;31;20108;-73
2024/01/12 06:31:56;;;;;;;13.05;5.32;;;;;;;-5.14;100.00;99336.88;4491555;31;20119;-74
2024/01/12 06:34:24;;;;;;;10.30;4.70;;;;;;;-5.14;100.00;99349.66;4497253;31;20122;-73
2024/01/12 06:36:51;;;;;;;15.65;5.97;;;;;;;-5.10;100.00;99346.16;4488661;31;20104;-71
2024/01/12 06:39:20;;;;;;;13.02;4.70;;;;;;;-5.09;100.00;99350.41;4487940;31;20662;-73
2024/01/12 06:41:48;;;;;;;12.85;4.03;;;;;;;-5.02;100.00;99352.84;4490286;31;20525;-73
2024/01/12 06:44:15;;;;;;;12.68;5.22;;;;;;;-4.92;100.00;99355.22;4490489;31;20142;-73
2024/01/12 06:46:44;;;;;;;9.07;4.00;;;;;;;-4.97;100.00;99354.47;4488906;31;20104;-73
2024/01/12 06:49:13;;;;;;;11.40;4.85;;;;;;;-4.91;100.00;99350.09;4494069;31;20147;-74
2024/01/12 06:51:41;;;;;;;11.40;4.05;;;;;;;-4.86;100.00;99361.09;4492889;31;20112;-73
2024/01/12 06:54:10;;;;;;;10.85;4.62;;;;;;;-4.88;100.00;99356.88;4494288;31;20104;-72
2024/01/12 06:56:38;;;;;;;8.93;4.82;;;;;;;-4.88;100.00;99357.72;4498724;31;20560;-74
2024/01/12 06:59:06;;;;;;;12.30;5.12;;;;;;;-4.88;100.00;99356.88;4499660;31;20138;-74
2024/01/12 07:01:34;;;;;;;11.77;4.60;;;;;;;-4.89;100.00;99358.59;4489061;31;20120;-74
2024/01/12 07:04:01;;;;;;;13.02;4.37;;;;;;;-4.86;100.00;99357.69;4495803;31;20104;-73
2024/01/12 07:06:29;;;;;;;10.82;5.80;;;;;;;-4.79;100.00;99368.66;4492202;31;20092;-74
2024/01/12 07:08:58;;;;;;;12.02;5.45;;;;;;;-4.78;100.00;99367.78;4490647;31;20143;-75
2024/01/12 07:11:26;;;;;;;12.68;4.65;;;;;;;-4.71;100.00;99379.59;4491077;31;20145;-74
2024/01/12 07:13:55;;;;;;;15.32;6.43;;;;;;;-4.59;100.00;99378.53;4493832;31;20108;-75
2024/01/12 07:16:24;;;;;;;12.27;5.90;;;;;;;-4.55;100.00;99382.72;4487650;31;20092;-73
2024/01/12 07:18:52;;;;;;;14.45;5.30;;;;;;;-4.53;100.00;99392.03;4494604;31;20099;-73
2024/01/12 07:21:22;;;;;;;13.90;5.10;;;;;;;-4.48;100.00;99392.81;4496850;31;20452;-73
2024/01/12 07:23:50;;;;;;;8.25;4.57;;;;;;;-4.42;100.00;99396.12;4489307;31;20127;-74
2024/01/12 07:26:21;;;;;;;13.40;5.95;;;;;;;-4.39;100.00;99394.38;4492071;31;20113;-74
2024/01/12 07:28:51;;;;;;;16.48;5.78;;;;;;;-4.35;100.00;99392.59;4488843;31;20151;-72
2024/01/12 07:31:19;;;;;;;10.82;5.45;;;;;;;-4.27;100.00;99393.28;4489274;31;20135;-73
2024/01/12 07:33:48;;;;;;;17.77;6.03;;;;;;;-4.30;100.00;99399.31;4494972;31;20104;-75
2024/01/12 07:36:16;;;;;;;17.65;5.25;;;;;;;-4.24;100.00;99395.78;4493114;31;20092;-75
2024/01/12 07:38:44;;;;;;;17.75;7.65;;;;;;;-4.18;100.00;99390.56;4491915;31;20171;-75
2024/01/12 07:41:12;;;;;;;10.95;6.28;;;;;;;-4.13;100.00;99393.88;4495696;31;20096;-74
2024/01/12 07:43:40;;;;;;;13.05;5.87;;;;;;;-4.12;100.00;99395.56;4494107;31;20155;-74
2024/01/12 07:46:08;;;;;;;15.38;6.62;;;;;;;-4.04;100.00;99386.88;4496931;31;20576;-75
2024/01/12 07:48:37;;;;;;;18.58;7.82;;;;;;;-4.00;100.00;99399.56;4486256;31;20156;-74
2024/01/12 07:51:05;;;;;;;18.12;7.22;;;;;;;-3.99;100.00;99403.00;4491132;31;20142;-77
2024/01/12 07:53:33;;;;;;;20.15;7.50;;;;;;;-3.98;100.00;99394.44;4489549;31;20131;-76
2024/01/12 07:56:06;;;;;;;19.60;7.70;;;;;;;-4.01;100.00;99408.16;4489902;31;20582;-75
2024/01/12 07:58:34;;;;;;;22.17;8.85;;;;;;;-4.07;100.00;99418.50;4479394;31;21174;-74
2024/01/12 08:01:05;;;;;;;17.70;6.28;;;;;;;-4.03;100.00;99414.16;4483677;31;21787;-73
2024/01/12 08:03:34;;;;;;;20.42;7.85;;;;;;;-3.97;100.00;99435.34;4492614;31;20795;-74
2024/01/12 08:06:03;;;;;;;22.55;8.65;;;;;;;-3.90;100.00;99436.09;4488434;31;20103;-72
2024/01/12 08:08:30;;;;;;;19.87;9.18;;;;;;;-3.90;100.00;99441.19;4485919;31;20096;-74
2024/01/12 08:10:58;;;;;;;17.23;7.68;;;;;;;-3.84;100.00;99448.75;4482929;31;20084;-73
2024/01/12 08:13:26;;;;;;;21.55;9.10;;;;;;;-3.90;100.00;99451.44;4486284;31;20439;-74
2024/01/12 08:15:53;;;;;;;23.70;10.15;;;;;;;-3.97;100.00;99444.75;4492819;31;20164;-76
2024/01/12 08:18:22;;;;;;;16.17;7.75;;;;;;;-3.89;100.00;99452.28;4488342;31;20103;-75
2024/01/12 08:20:50;;;;;;;18.80;7.32;;;;;;;-4.01;100.00;99455.91;4488897;31;20076;-75
2024/01/12 08:23:18;;;;;;;18.87;7.60;;;;;;;-4.03;100.00;99460.22;4499480;31;20108;-76
2024/01/12 08:25:46;;;;;;;21.67;9.43;;;;;;;-4.12;100.00;99462.09;4500456;31;20096;-75
2024/01/12 08:28:13;;;;;;;22.25;9.40;;;;;;;-4.09;100.00;99463.72;4485293;31;20104;-77
2024/01/12 08:30:41;;;;;;;24.85;9.23;;;;;;;-4.11;100.00;99466.31;4494695;31;20112;-74
2024/01/12 08:33:09;;;;;;;16.90;8.90;;;;;;;-4.04;100.00;99466.19;4493179;31;20107;-75
2024/01/12 08:35:37;;;;;;;18.50;7.25;;;;;;;-3.84;100.00;99459.00;4500195;31;20134;-76
2024/01/12 08:38:05;;;;;;;22.17;9.27;;;;;;;-3.73;100.00;99473.31;4494553;31;20489;-75
2024/01/12 08:40:33;;;;;;;23.65;9.60;;;;;;;-3.57;100.00;99470.41;4486732;31;20105;-75
2024/01/12 08:43:01;;;;;;;19.60;8.02;;;;;;;-3.52;100.00;99465.19;4493747;31;20545;-75
2024/01/12 08:45:29;;;;;;;18.10;8.63;;;;;;;-3.37;100.00;99470.88;4499389;31;20104;-75
2024/01/12 08:47:58;;;;;;;15.38;8.27;;;;;;;-3.28;100.00;99468.13;4498427;31;20100;-75
2024/01/12 08:50:25;;;;;;;21.70;8.93;;;;;;;-3.20;100.00;99468.78;4494590;31;20092;-74
2024/01/12 08:52:55;;;;;;;13.60;6.72;;;;;;;-3.09;100.00;99473.69;4491030;31;20481;-73
2024/01/12 08:55:26;;;;;;;17.73;8.55;;;;;;;-3.01;100.00;99484.63;4494895;31;20116;-75
2024/01/12 08:57:53;;;;;;;19.83;9.18;;;;;;;-2.94;100.00;99469.94;4495443;31;20599;-74
2024/01/12 09:00:21;;;;;;;22.08;8.68;;;;;;;-3.00;100.00;99475.19;4497057;31;20108;-73
2024/01/12 09:02:51;;;;;;;24.33;9.95;;;;;;;-2.83;100.00;99479.94;4489644;31;20100;-74
2024/01/12 09:05:20;;;;;;;21.12;8.18;;;;;;;-2.73;100.00;99483.97;4491078;31;20096;-76
2024/01/12 09:07:50;;;;;;;21.10;7.55;;;;;;;-2.80;100.00;99478.16;4486371;31;20092;-75
2024/01/12 09:10:18;;;;;;;22.25;9.57;;;;;;;-2.70;100.00;99495.00;4493979;31;20100;-74
2024/01/12 09:12:45;;;;;;;24.87;9.10;;;;;;;-2.57;100.00;99495.56;4494758;31;20092;-76
2024/01/12 09:15:14;;;;;;;19.60;7.72;;;;;;;-2.56;100.00;99496.41;4488530;31;20465;-76
2024/01/12 09:17:42;;;;;;;21.65;9.15;;;;;;;-2.39;100.00;99493.41;4476385;31;20485;-76
2024/01/12 09:20:15;;;;;;;21.75;9.00;;;;;;;-2.37;100.00;99497.63;4482272;31;20112;-77
2024/01/12 09:22:43;;;;;;;21.50;8.65;;;;;;;-2.36;100.00;99507.03;4494251;31;20099;-76
2024/01/12 09:25:10;;;;;;;27.90;8.77;;;;;;;-2.15;100.00;99497.94;4490829;31;20100;-75
2024/01/12 09:27:39;;;;;;;18.62;8.55;;;;;;;-1.97;100.00;99496.63;4491209;31;20153;-75
2024/01/12 09:30:07;;;;;;;23.15;9.05;;;;;;;-2.01;100.00;99510.44;4493307;31;20438;-75
2024/01/12 09:32:35;;;;;;;22.90;9.57;;;;;;;-1.90;100.00;99506.75;4497144;31;20380;-75
2024/01/12 09:35:05;;;;;;;24.42;9.27;;;;;;;-1.82;100.00;99512.50;4483300;31;20097;-75
2024/01/12 09:37:35;;;;;;;22.23;10.55;;;;;;;-1.75;100.00;99505.50;4486520;31;20155;-76
2024/01/12 09:40:18;;;;;;;18.77;7.28;;;;;;;-1.74;100.00;99515.72;4493229;31;20136;-75
2024/01/12 09:42:49;;;;;;;18.75;7.93;;;;;;;-1.41;100.00;99510.53;4492955;31;20516;-75
2024/01/12 09:45:17;;;;;;;27.77;8.65;;;;;;;-1.28;100.00;99511.03;4497821;31;20493;-75
2024/01/12 09:47:52;;;;;;;21.37;9.02;;;;;;;-1.43;100.00;99522.59;4496283;31;20087;-74
2024/01/12 09:50:24;;;;;;;21.08;7.68;;;;;;;-1.58;100.00;99516.13;4500042;31;20076;-75
2024/01/12 09:52:52;;;;;;;15.60;8.18;;;;;;;-1.43;100.00;99515.69;4489139;31;20812;-73
2024/01/12 09:55:19;;;;;;;25.35;9.90;;;;;;;-1.52;100.00;99525.41;4491113;31;20114;-74
2024/01/12 09:57:47;;;;;;;28.12;9.85;;;;;;;-1.54;100.00;99515.19;4493240;31;20127;-75
2024/01/12 10:00:14;;;;;;;18.95;9.10;;;;;;;-1.57;100.00;99530.69;4493382;31;20112;-74
2024/01/12 10:02:43;;;;;;;27.65;9.25;;;;;;;-1.50;100.00;99521.06;4486358;31;20103;-74
2024/01/12 10:05:10;;;;;;;17.80;6.97;;;;;;;-1.49;100.00;99518.44;4487852;31;20537;-76
2024/01/12 10:07:39;;;;;;;15.65;7.07;;;;;;;-1.54;100.00;99511.78;4493689;31;20100;-75
2024/01/12 10:10:09;;;;;;;23.92;9.25;;;;;;;-1.63;100.00;99511.13;4497979;31;20147;-74
2024/01/12 10:12:36;;;;;;;16.17;7.30;;;;;;;-1.54;100.00;99511.78;4499393;31;20139;-74
2024/01/12 10:15:08;;;;;;;18.15;8.88;;;;;;;-1.37;100.00;99506.16;4496280;31;20172;-74
2024/01/12 10:17:37;;;;;;;25.60;9.10;;;;;;;-1.41;100.00;99510.53;4496919;31;20143;-74
2024/01/12 10:20:06;;;;;;;20.58;9.00;;;;;;;-1.37;100.00;99508.72;4491555;31;20096;-74
2024/01/12 10:22:38;;;;;;;21.15;9.43;;;;;;;-1.29;100.00;99499.06;4483101;31;20468;-74
2024/01/12 10:25:07;;;;;;;22.48;8.23;;;;;;;-1.43;100.00;99505.44;4492716;31;20122;-75
2024/01/12 10:27:34;;;;;;;17.42;7.82;;;;;;;-1.36;100.00;99508.69;4488546;31;20119;-74
2024/01/12 10:30:02;;;;;;;21.42;8.77;;;;;;;-1.28;100.00;99511.88;4492828;31;20156;-74
2024/01/12 10:32:30;;;;;;;21.62;8.85;;;;;;;-1.30;100.00;99517.94;4490473;31;20139;-73
2024/01/12 10:34:58;;;;;;;22.83;9.90;;;;;;;-1.38;100.00;99509.59;4494139;31;20516;-74
2024/01/12 10:37:26;;;;;;;23.33;9.63;;;;;;;-1.44;100.00;99506.34;4485067;31;20417;-75
2024/01/12 10:39:57;;;;;;;24.73;9.15;;;;;;;-1.22;100.00;99504.87;4492792;31;20140;-74
2024/01/12 10:42:27;;;;;;;23.42;9.40;;;;;;;-1.12;100.00;99495.97;4485718;31;20165;-73
2024/01/12 10:44:56;;;;;;;18.20;7.87;;;;;;;-1.17;100.00;99496.13;4482232;31;20830;-74
2024/01/12 10:47:32;;;;;;;23.45;8.65;;;;;;;-1.08;100.00;99497.59;4491745;31;20087;-74
2024/01/12 10:50:04;;;;;;;23.62;9.85;;;;;;;-1.13;100.00;99489.19;4493390;31;20088;-73
2024/01/12 10:52:54;;;;;;;21.80;10.18;;;;;;;-1.10;100.00;99487.34;4494482;31;20096;-74
2024/01/12 10:55:22;;;;;;;32.95;11.27;;;;;;;-0.94;100.00;99485.16;4490070;31;20147;-75
2024/01/12 10:57:49;;;;;;;23.35;8.98;;;;;;;-0.78;100.00;99475.22;4489187;31;20107;-76
2024/01/12 11:00:16;;;;;;;22.70;9.38;;;;;;;-0.65;100.00;99480.84;4488418;31;20104;-75
2024/01/12 11:02:44;;;;;;;20.70;7.70;;;;;;;-0.74;100.00;99481.13;4490607;31;20089;-73
2024/01/12 11:05:14;;;;;;;13.13;6.15;;;;;;;-0.66;100.00;99486.88;4495232;31;20104;-74
2024/01/12 11:07:42;;;;;;;18.73;8.88;;;;;;;-0.65;100.00;99480.84;4494966;31;20461;-75
2024/01/12 11:10:11;;;;;;;21.40;6.72;;;;;;;-0.54;100.00;99483.91;4494455;31;20164;-75
2024/01/12 11:12:40;;;;;;;20.25;8.50;;;;;;;-0.74;100.00;99476.00;4479825;31;20139;-74
2024/01/12 11:15:09;;;;;;;15.40;7.22;;;;;;;-0.67;100.00;99482.59;4484775;31;20121;-76
2024/01/12 11:17:36;;;;;;;19.50;7.93;;;;;;;-0.63;100.00;99481.63;4487894;31;20130;-74
2024/01/12 11:20:10;;;;;;;21.08;8.10;;;;;;;-0.60;100.00;99470.41;4486914;31;20119;-78
2024/01/12 11:22:47;;;;;;;22.30;8.07;;;;;;;-0.65;100.00;99465.41;4489609;31;20097;-75